Preston, MN

3:05 AM CST on December 15, 2017 (GMT -0600)
Preston

Weather History for KFKA - September, 2012

Change the Weather History Date:

Tuesday, September 18, 2012

  Actual Average (KRST) Record (KRST)
Temperature  
Mean Temperature 48 °F -  
Max Temperature 58 °F 70 °F 93 °F (1955)
Min Temperature 39 °F 49 °F 26 °F (1929)
Degree Days  
Heating Degree Days 16    
Moisture  
Dew Point 32 °F    
Average Humidity 56    
Maximum Humidity 87    
Minimum Humidity 28    
Precipitation  
Precipitation 0.00 in - - ()
Sea Level Pressure  
Sea Level Pressure 29.99 in    
Wind  
Wind Speed 6 mph (NW)    
Max Wind Speed 16 mph    
Max Gust Speed 24 mph    
Visibility 10 miles    
Events      
Averages and records for this station are not official NWS values.
T = Trace of Precipitation, MM = Missing Value Source: NWS Daily Summary

Daily Weather History Graph

Daily Weather History Graph

Search for Another Location

Airport or City:

Trip Planner

Search our weather history database for the weather conditions in past years. The results will help you decide how hot, cold, wet, or windy it might be!

Date:

Astronomy

Sep. 18, 2012 Rise Set
Actual Time 6:51 AM CDT 7:12 PM CDT
Civil Twilight 6:23 AM CDT 7:41 PM CDT
Nautical Twilight 5:49 AM CDT 8:14 PM CDT
Astronomical Twilight 5:14 AM CDT 8:49 PM CDT
Moon 10:00 AM CDT (9/18) 8:27 PM CDT (9/18)
Length of Visible Light 13h 17m
Length of Day
12h 20m
Waxing Crescent, 9% of the Moon is Illuminated
Sep 18
Waxing Crescent
Sep 22
First Quarter
Sep 29
Full
Oct 8
Last Quarter
Oct 15
New

Hourly Weather History & Observations

Time (CDT) Temp. Windchill Dew Point Humidity Pressure Visibility Wind Dir Wind Speed Gust Speed Precip Events Conditions
12:14 AM 48.0 °F - 35.8 °F 63% 29.97 in 10.0 mi North 4.6 mph - N/A   Overcast
12:34 AM 47.5 °F - 36.1 °F 65% 29.97 in 10.0 mi North 4.6 mph - N/A   Overcast
12:53 AM 47.3 °F - 35.8 °F 64% 29.97 in 10.0 mi NNW 3.5 mph - N/A   Overcast
1:13 AM 46.8 °F - 35.8 °F 66% 29.97 in 10.0 mi NNW 3.5 mph - N/A   Overcast
1:33 AM 46.4 °F 45.2 °F 36.5 °F 68% 29.98 in 10.0 mi NNW 3.5 mph - N/A   Overcast
1:53 AM 46.4 °F 44.3 °F 36.3 °F 68% 29.98 in 10.0 mi NNW 4.6 mph - N/A   Overcast
2:33 AM 43.0 °F 40.3 °F 36.5 °F 78% 29.98 in 10.0 mi NW 4.6 mph - N/A   Mostly Cloudy
2:54 AM 43.3 °F 39.9 °F 37.2 °F 79% 29.99 in 10.0 mi NW 5.8 mph - N/A   Overcast
3:14 AM 43.7 °F 41.1 °F 37.0 °F 77% 29.98 in 10.0 mi NW 4.6 mph - N/A   Overcast
3:33 AM 42.8 °F 38.6 °F 36.7 °F 79% 29.98 in 10.0 mi NW 6.9 mph - N/A   Mostly Cloudy
3:53 AM 42.4 °F 40.7 °F 36.9 °F 81% 29.98 in 10.0 mi NW 3.5 mph - N/A   Mostly Cloudy
4:14 AM 43.3 °F 40.7 °F 37.0 °F 78% 29.98 in 10.0 mi NW 4.6 mph - N/A   Overcast
4:33 AM 43.7 °F 40.3 °F 37.0 °F 77% 29.98 in 10.0 mi NW 5.8 mph - N/A   Overcast
4:53 AM 43.9 °F 39.9 °F 37.4 °F 78% 29.98 in 10.0 mi NW 6.9 mph - N/A   Overcast
5:14 AM 43.7 °F 39.7 °F 37.0 °F 77% 29.99 in 10.0 mi NW 6.9 mph - N/A   Overcast
5:33 AM 43.0 °F 39.5 °F 36.9 °F 79% 29.99 in 10.0 mi NW 5.8 mph - N/A   Overcast
5:53 AM 41.7 °F 38.8 °F 36.1 °F 81% 29.99 in 10.0 mi NNW 4.6 mph - N/A   Scattered Clouds
6:13 AM 40.1 °F 35.3 °F 35.4 °F 83% 29.99 in 10.0 mi NW 6.9 mph - N/A   Clear
6:33 AM 39.6 °F 34.0 °F 35.6 °F 86% 30.00 in 10.0 mi NW 8.1 mph - N/A   Clear
6:53 AM 39.2 °F 33.6 °F 35.6 °F 87% 30.00 in 10.0 mi NW 8.1 mph - N/A   Clear
7:14 AM 39.2 °F 33.6 °F 35.6 °F 87% 30.00 in 10.0 mi NW 8.1 mph - N/A   Clear
7:33 AM 39.6 °F 35.4 °F 35.8 °F 86% 30.01 in 10.0 mi NW 5.8 mph - N/A   Clear
7:53 AM 41.2 °F 37.3 °F 36.5 °F 83% 30.01 in 10.0 mi NW 5.8 mph - N/A   Clear
8:14 AM 43.2 °F 39.7 °F 36.7 °F 78% 30.01 in 10.0 mi NW 5.8 mph - N/A   Clear
8:53 AM 46.4 °F 42.9 °F 37.0 °F 70% 30.02 in 10.0 mi NW 6.9 mph - N/A   Clear
9:13 AM 48.0 °F - 36.5 °F 64% 30.02 in 10.0 mi NW 8.1 mph - N/A   Clear
9:33 AM 49.1 °F - 36.0 °F 61% 30.02 in 10.0 mi NNW 10.4 mph - N/A   Clear
9:54 AM 50.4 °F - 36.9 °F 60% 30.02 in 10.0 mi NW 9.2 mph - N/A   Clear
10:13 AM 50.9 °F - 34.9 °F 54% 30.02 in 10.0 mi NNW 6.9 mph - N/A   Clear
10:33 AM 51.8 °F - 32.7 °F 48% 30.01 in 10.0 mi NW 8.1 mph - N/A   Clear
10:54 AM 52.2 °F - 32.4 °F 47% 30.01 in 10.0 mi NW 9.2 mph 16.1 mph N/A   Clear
11:13 AM 52.5 °F - 33.3 °F 48% 30.01 in 10.0 mi North 6.9 mph 16.1 mph N/A   Clear
11:34 AM 53.1 °F - 33.4 °F 47% 30.01 in 10.0 mi NW 8.1 mph 16.1 mph N/A   Mostly Cloudy
11:53 AM 53.4 °F - 33.4 °F 47% 30.01 in 10.0 mi NW 6.9 mph 16.1 mph N/A   Mostly Cloudy
12:14 PM 53.2 °F - 32.2 °F 45% 30.02 in 10.0 mi NW 8.1 mph 18.4 mph N/A   Scattered Clouds
12:33 PM 54.5 °F - 33.1 °F 44% 30.01 in 10.0 mi NNW 10.4 mph - N/A   Scattered Clouds
12:53 PM 53.1 °F - 32.5 °F 46% 30.02 in 10.0 mi NNW 8.1 mph 16.1 mph N/A   Mostly Cloudy
1:14 PM 55.8 °F - 29.8 °F 37% 30.01 in 10.0 mi NW 12.7 mph 20.7 mph N/A   Mostly Cloudy
1:33 PM 55.4 °F - 31.8 °F 41% 30.01 in 10.0 mi NW 9.2 mph - N/A   Mostly Cloudy
2:13 PM 58.1 °F - 29.1 °F 33% 30.00 in 10.0 mi NW 16.1 mph 23.0 mph N/A   Scattered Clouds
2:33 PM 54.9 °F - 29.1 °F 37% 29.99 in 10.0 mi NNW 11.5 mph 18.4 mph N/A   Scattered Clouds
2:53 PM 57.6 °F - 28.6 °F 33% 29.99 in 10.0 mi NNW 8.1 mph 19.6 mph N/A   Scattered Clouds
3:13 PM 56.1 °F - 28.4 °F 35% 29.99 in 10.0 mi NW 12.7 mph 23.0 mph N/A   Scattered Clouds
3:33 PM 57.2 °F - 27.3 °F 32% 29.99 in 10.0 mi NNW 13.8 mph 24.2 mph N/A   Scattered Clouds
3:53 PM 58.5 °F - 27.3 °F 30% 29.98 in 10.0 mi North 12.7 mph - N/A   Mostly Cloudy
4:13 PM 56.3 °F - 26.1 °F 31% 29.98 in 10.0 mi NNW 8.1 mph 19.6 mph N/A   Scattered Clouds
4:33 PM 58.1 °F - 24.6 °F 28% 29.98 in 10.0 mi NNW 11.5 mph 17.3 mph N/A   Clear
4:54 PM 57.6 °F - 25.7 °F 29% 29.98 in 10.0 mi NW 11.5 mph - N/A   Clear
5:13 PM 57.2 °F - 25.0 °F 29% 29.98 in 10.0 mi NNW 11.5 mph - N/A   Clear
5:33 PM 56.8 °F - 24.4 °F 29% 29.99 in 10.0 mi North 8.1 mph - N/A   Clear
5:53 PM 56.5 °F - 25.5 °F 30% 29.99 in 10.0 mi NNW 8.1 mph - N/A   Clear
6:14 PM 55.4 °F - 24.6 °F 30% 29.99 in 10.0 mi NNW 6.9 mph - N/A   Clear
6:33 PM 53.2 °F - 25.7 °F 34% 29.99 in 10.0 mi NNW 5.8 mph - N/A   Clear
6:53 PM 52.3 °F - 25.2 °F 35% 29.99 in 10.0 mi Calm Calm - N/A   Clear
7:13 PM 51.8 °F - 27.1 °F 39% 29.99 in 10.0 mi West 3.5 mph - N/A   Clear
7:33 PM 51.4 °F - 26.8 °F 38% 29.99 in 10.0 mi West 3.5 mph - N/A   Clear
7:53 PM 51.3 °F - 27.1 °F 39% 29.99 in 10.0 mi Calm Calm - N/A   Clear
8:13 PM 50.5 °F - 27.9 °F 42% 30.00 in 10.0 mi Calm Calm - N/A   Clear
8:34 PM 48.7 °F - 29.7 °F 48% 30.00 in 10.0 mi Calm Calm - N/A   Clear
8:53 PM 49.1 °F - 30.2 °F 48% 30.00 in 10.0 mi Calm Calm - N/A   Scattered Clouds
9:13 PM 46.6 °F - 32.7 °F 59% 30.00 in 10.0 mi SSW 5.8 mph - N/A   Mostly Cloudy
9:33 PM 46.4 °F 44.3 °F 32.0 °F 57% 30.00 in 10.0 mi South 4.6 mph - N/A   Mostly Cloudy
9:53 PM 45.3 °F 43.0 °F 32.0 °F 60% 29.99 in 10.0 mi South 4.6 mph - N/A   Mostly Cloudy
10:13 PM 46.8 °F - 30.4 °F 53% 29.99 in 10.0 mi South 4.6 mph - N/A   Scattered Clouds
10:34 PM 43.3 °F 40.7 °F 33.8 °F 69% 29.99 in 10.0 mi South 4.6 mph - N/A   Scattered Clouds
10:53 PM 45.7 °F 43.4 °F 32.5 °F 60% 29.98 in 10.0 mi South 4.6 mph - N/A   Mostly Cloudy
11:13 PM 45.5 °F 44.2 °F 32.9 °F 61% 29.97 in 10.0 mi South 3.5 mph - N/A   Overcast
11:33 PM 45.9 °F 43.6 °F 33.4 °F 62% 29.97 in 10.0 mi South 4.6 mph - N/A   Overcast
11:53 PM 45.9 °F 42.3 °F 33.4 °F 62% 29.96 in 10.0 mi South 6.9 mph - N/A   Overcast